Time;durP1;ratioP1;P1;durP2;ratioP2;P2;SDS_P1;SDS_P2;PMS_P1;PMS_P2;Temp;Humidity;BMP_temperature;BMP_pressure;BME280_temperature;BME280_humidity;BME280_pressure;Samples;Min_cycle;Max_cycle;Signal;HPM_P1;HPM_P2
2022/09/25 00:00:53;;;;;;;75.62;42.65;;;;;;;5.86;75.52;100235.15;1694750;84;25457;-66
2022/09/25 00:03:25;;;;;;;79.25;42.20;;;;;;;5.84;75.66;100233.28;1682821;84;26236;-67
2022/09/25 00:05:54;;;;;;;80.62;44.20;;;;;;;5.79;75.74;100231.43;1693690;84;25631;-66
2022/09/25 00:08:21;;;;;;;87.02;43.45;;;;;;;5.77;75.79;100232.25;1658876;85;25586;-65
2022/09/25 00:10:50;;;;;;;82.78;42.27;;;;;;;5.74;75.58;100229.33;1691788;84;29563;-66
2022/09/25 00:13:20;;;;;;;76.50;42.05;;;;;;;5.72;75.38;100227.44;1698028;84;29456;-66
2022/09/25 00:15:53;;;;;;;84.95;44.75;;;;;;;5.69;75.60;100226.13;1690798;84;25643;-66
2022/09/25 00:21:11;;;;;;;88.78;43.75;;;;;;;5.65;75.75;100225.61;1682862;85;25436;-66
2022/09/25 00:23:39;;;;;;;82.42;43.73;;;;;;;5.61;76.16;100222.12;1682855;85;27983;-65
2022/09/25 00:26:07;;;;;;;83.47;45.05;;;;;;;5.61;76.22;100223.47;1682723;85;25449;-65
2022/09/25 00:28:36;;;;;;;80.17;42.23;;;;;;;5.60;76.18;100221.06;1682843;85;25653;-65
2022/09/25 00:31:05;;;;;;;56.18;29.75;;;;;;;5.58;76.39;100216.52;1682479;85;25693;-65
2022/09/25 00:33:33;;;;;;;83.33;43.17;;;;;;;5.57;76.16;100214.39;1683054;85;25656;-65
2022/09/25 00:36:06;;;;;;;79.72;44.30;;;;;;;5.55;76.65;100213.05;1682888;85;28068;-65
2022/09/25 00:38:35;;;;;;;85.72;43.33;;;;;;;5.54;76.44;100216.82;1645424;85;25495;-65
2022/09/25 00:41:04;;;;;;;88.45;44.77;;;;;;;5.51;76.08;100218.16;1670829;85;25837;-65
2022/09/25 00:43:44;;;;;;;82.55;43.13;;;;;;;5.49;76.22;100212.83;1676437;85;25709;-65
2022/09/25 00:46:30;;;;;;;;;;;;;;;5.47;76.30;100213.65;1683938;84;25583;-65
2022/09/25 00:49:14;;;;;;;83.50;44.80;;;;;;;5.43;76.89;100213.37;1682929;85;27630;-66
2022/09/25 00:51:49;;;;;;;88.55;47.38;;;;;;;5.38;76.59;100205.35;1682672;84;25802;-65
2022/09/25 00:54:26;;;;;;;80.92;44.08;;;;;;;5.35;76.78;100207.27;1682845;85;25385;-65
2022/09/25 00:56:56;;;;;;;84.10;45.52;;;;;;;5.32;77.15;100195.20;1682805;85;25684;-65
2022/09/25 00:59:27;;;;;;;92.37;46.33;;;;;;;5.29;77.39;100198.42;1682808;85;25453;-65
2022/09/25 01:01:54;;;;;;;87.65;45.50;;;;;;;5.28;77.35;100204.06;1682843;85;27389;-65
2022/09/25 01:04:22;;;;;;;84.40;43.85;;;;;;;5.25;77.43;100206.77;1662237;85;25547;-65
2022/09/25 01:06:51;;;;;;;86.72;43.80;;;;;;;5.22;77.35;100207.31;1666822;84;25648;-65
2022/09/25 01:09:18;;;;;;;67.40;34.83;;;;;;;5.20;77.50;100208.92;1679242;85;26253;-65
2022/09/25 01:11:44;;;;;;;79.55;41.25;;;;;;;5.19;77.75;100208.68;1682813;85;25630;-65
2022/09/25 01:14:16;;;;;;;78.25;42.95;;;;;;;5.19;77.51;100205.17;1682812;85;27355;-65
2022/09/25 01:17:00;;;;;;;82.85;44.67;;;;;;;5.17;77.14;100205.45;1693366;83;33141;-65
2022/09/25 01:20:00;;;;;;;75.17;42.00;;;;;;;5.16;77.30;100205.20;1697910;84;25447;-64
2022/09/25 01:22:40;;;;;;;71.33;39.18;;;;;;;5.15;77.45;100209.50;1697865;84;27743;-65
2022/09/25 01:25:29;;;;;;;75.12;39.20;;;;;;;5.12;77.39;100201.99;1689858;84;25499;-65
2022/09/25 01:28:13;;;;;;;74.55;39.23;;;;;;;5.09;77.49;100200.67;1697971;84;28211;-65
2022/09/25 01:30:43;;;;;;;76.65;38.95;;;;;;;5.07;77.51;100196.11;1697314;84;25764;-65
2022/09/25 01:33:17;;;;;;;71.37;38.40;;;;;;;5.02;77.71;100199.63;1698017;84;25441;-66
2022/09/25 01:35:57;;;;;;;74.65;39.18;;;;;;;4.99;77.05;100198.03;1697445;84;25671;-65
2022/09/25 01:38:40;;;;;;;71.55;38.45;;;;;;;4.98;77.52;100203.13;1698019;84;25411;-65
2022/09/25 01:41:18;;;;;;;70.12;36.95;;;;;;;4.95;77.56;100201.77;1683569;84;27364;-65
2022/09/25 01:44:06;;;;;;;71.90;38.13;;;;;;;4.93;77.47;100199.91;1693923;84;25741;-65
2022/09/25 01:46:39;;;;;;;71.72;38.73;;;;;;;4.90;77.45;100197.77;1679444;84;25497;-67
2022/09/25 01:49:23;;;;;;;78.67;44.18;;;;;;;4.88;77.31;100198.59;1675891;84;25697;-65
2022/09/25 01:51:53;;;;;;;67.50;36.42;;;;;;;4.86;77.68;100197.52;1698003;84;25468;-65
2022/09/25 01:54:24;;;;;;;63.95;35.60;;;;;;;4.86;77.67;100194.05;1697801;84;29529;-65
2022/09/25 01:57:25;;;;;;;64.60;34.90;;;;;;;4.83;77.67;100192.70;1697468;84;27435;-65
2022/09/25 02:00:09;;;;;;;59.73;33.88;;;;;;;4.81;77.69;100187.36;1669710;84;25446;-64
2022/09/25 02:02:41;;;;;;;58.80;33.67;;;;;;;4.78;77.54;100190.58;1697893;84;26237;-66
2022/09/25 02:05:13;;;;;;;65.92;35.25;;;;;;;4.76;77.89;100186.83;1698032;84;25556;-65
2022/09/25 02:07:50;;;;;;;57.17;31.55;;;;;;;4.74;77.60;100185.52;1697127;84;27484;-65
2022/09/25 02:10:28;;;;;;;60.95;33.40;;;;;;;4.72;77.79;100183.10;1697882;84;25607;-65
2022/09/25 02:12:59;;;;;;;64.77;33.98;;;;;;;4.70;77.76;100179.08;1697940;84;25697;-67
2022/09/25 02:15:33;;;;;;;57.13;31.82;;;;;;;4.66;77.86;100178.82;1697237;84;25779;-65
2022/09/25 02:20:57;;;;;;;59.77;33.23;;;;;;;4.63;78.05;100186.05;1689049;85;29466;-65
2022/09/25 02:23:38;;;;;;;60.25;32.63;;;;;;;4.61;78.21;100180.17;1688571;85;25602;-64
2022/09/25 02:26:13;;;;;;;57.55;31.70;;;;;;;4.58;78.08;100180.71;1688583;85;25399;-64
2022/09/25 02:28:40;;;;;;;58.35;30.68;;;;;;;4.57;78.18;100173.77;1688996;84;25609;-64
2022/09/25 02:31:13;;;;;;;56.02;31.68;;;;;;;4.55;78.05;100175.92;1688928;85;25645;-65
2022/09/25 02:33:40;;;;;;;60.03;34.03;;;;;;;4.52;78.12;100169.76;1689030;84;27515;-65
2022/09/25 02:36:06;;;;;;;59.58;33.38;;;;;;;4.48;78.19;100162.80;1688883;84;25932;-65
2022/09/25 02:38:35;;;;;;;65.15;34.55;;;;;;;4.47;78.35;100159.84;1688909;85;25645;-65
2022/09/25 02:41:39;;;;;;;60.45;33.95;;;;;;;4.46;78.09;100156.89;1653735;85;25765;-65
2022/09/25 02:44:51;;;;;;;59.73;34.35;;;;;;;4.43;78.32;100160.93;1638081;86;25618;-65
2022/09/25 02:47:50;;;;;;;62.20;34.75;;;;;;;4.42;78.21;100157.18;1643907;87;27623;-65
2022/09/25 02:50:24;;;;;;;51.50;29.70;;;;;;;4.39;78.39;100156.38;1646039;87;25762;-65
2022/09/25 02:53:24;;;;;;;57.93;30.25;;;;;;;4.37;78.25;100151.84;1646278;87;25670;-65
2022/09/25 02:55:58;;;;;;;55.90;31.00;;;;;;;4.35;78.38;100146.75;1625028;88;25785;-64
2022/09/25 02:58:44;;;;;;;59.33;32.28;;;;;;;4.34;78.54;100148.35;1625021;88;25620;-64
2022/09/25 03:01:15;;;;;;;64.85;40.15;;;;;;;4.32;78.72;100145.15;1625066;88;28125;-66
2022/09/25 03:03:44;;;;;;;81.90;52.80;;;;;;;4.32;78.70;100146.48;1625052;88;25618;-65
2022/09/25 03:06:11;;;;;;;76.77;49.70;;;;;;;4.29;78.83;100143.28;1625226;88;25762;-65
2022/09/25 03:08:42;;;;;;;67.80;40.38;;;;;;;4.28;78.86;100146.23;1624945;88;25526;-66
2022/09/25 03:11:14;;;;;;;61.53;33.53;;;;;;;4.26;78.65;100143.03;1625179;88;25603;-64
2022/09/25 03:13:42;;;;;;;57.05;32.00;;;;;;;4.24;78.78;100144.63;1625080;88;26872;-64
2022/09/25 03:16:47;;;;;;;66.25;33.38;;;;;;;4.23;78.84;100136.87;1624889;88;25677;-64
2022/09/25 03:19:15;;;;;;;58.45;31.12;;;;;;;4.22;78.77;100148.64;1576885;91;25636;-64
2022/09/25 03:21:41;;;;;;;58.83;29.42;;;;;;;4.19;78.72;100149.99;1599818;88;25760;-64
2022/09/25 03:24:08;;;;;;;58.10;30.75;;;;;;;4.17;78.51;100153.48;1641378;87;25713;-64
2022/09/25 03:26:35;;;;;;;51.05;29.07;;;;;;;4.15;78.58;100148.91;1603131;87;27398;-64
2022/09/25 03:29:01;;;;;;;58.78;29.12;;;;;;;4.13;78.66;100152.39;1632525;87;27252;-64
2022/09/25 03:31:29;;;;;;;48.45;28.25;;;;;;;4.11;78.67;100146.52;1689042;85;25640;-64
2022/09/25 03:33:56;;;;;;;47.55;27.22;;;;;;;4.09;78.91;100143.31;1689033;84;25676;-64
2022/09/25 03:36:28;;;;;;;53.98;30.95;;;;;;;4.10;79.19;100144.39;1689129;84;25622;-64
2022/09/25 03:38:57;;;;;;;53.95;32.05;;;;;;;4.09;78.88;100147.33;1689102;85;27365;-64
2022/09/25 03:41:27;;;;;;;53.35;30.88;;;;;;;4.10;78.84;100147.58;1689065;85;29985;-66
2022/09/25 03:43:55;;;;;;;53.78;29.92;;;;;;;4.08;78.87;100145.16;1689081;85;25422;-64
2022/09/25 03:46:28;;;;;;;48.85;29.12;;;;;;;4.07;78.72;100146.25;1689052;85;25628;-66
2022/09/25 03:48:55;;;;;;;47.60;27.98;;;;;;;4.04;78.50;100150.80;1689084;85;25714;-65
2022/09/25 03:51:24;;;;;;;57.20;30.12;;;;;;;4.03;78.73;100146.50;1689061;84;27336;-66
2022/09/25 03:53:51;;;;;;;54.67;30.45;;;;;;;4.02;79.00;100152.95;1689074;84;25723;-66
2022/09/25 03:56:22;;;;;;;65.97;38.42;;;;;;;4.02;79.07;100146.26;1689108;85;25462;-66
2022/09/25 03:58:50;;;;;;;84.42;45.98;;;;;;;4.03;79.11;100137.69;1689076;85;25630;-66
2022/09/25 04:01:20;;;;;;;72.45;42.13;;;;;;;4.03;79.43;100147.84;1689084;85;25420;-66
2022/09/25 04:03:48;;;;;;;55.95;33.50;;;;;;;4.03;79.51;100146.50;1689037;85;27908;-66
2022/09/25 04:06:22;;;;;;;55.80;29.57;;;;;;;4.03;79.77;100144.38;1688994;85;25443;-64
2022/09/25 04:08:50;;;;;;;55.73;30.35;;;;;;;4.02;79.60;100146.26;1689032;85;25635;-66
2022/09/25 04:11:19;;;;;;;60.58;32.10;;;;;;;4.03;79.55;100145.71;1689029;84;25648;-65
2022/09/25 04:13:46;;;;;;;69.22;36.13;;;;;;;4.02;79.60;100147.59;1689286;85;25465;-65
2022/09/25 04:16:15;;;;;;;83.62;46.08;;;;;;;4.03;79.65;100151.06;1688646;84;26867;-64
2022/09/25 04:18:42;;;;;;;77.85;42.93;;;;;;;4.02;79.64;100153.47;1683043;85;25668;-65
2022/09/25 04:21:11;;;;;;;88.67;45.90;;;;;;;4.02;79.72;100150.27;1682874;84;25658;-65
2022/09/25 04:23:38;;;;;;;;;;;;;;;4.04;79.86;100152.14;1685302;85;25711;-65
2022/09/25 04:26:05;;;;;;;143.57;79.40;;;;;;;4.04;79.75;100148.67;1663501;85;25419;-65
2022/09/25 04:28:31;;;;;;;110.42;59.25;;;;;;;4.03;79.83;100148.39;1682834;85;27344;-65
2022/09/25 04:30:59;;;;;;;71.20;39.13;;;;;;;4.02;79.93;100147.59;1682820;85;25582;-65
2022/09/25 04:36:11;;;;;;;84.85;46.63;;;;;;;4.02;79.99;100143.58;1682850;85;26491;-65
2022/09/25 04:38:37;;;;;;;79.10;41.95;;;;;;;4.04;80.00;100144.66;1682914;84;25597;-65
2022/09/25 04:41:04;;;;;;;59.30;32.03;;;;;;;4.04;80.10;100141.44;1682814;85;28039;-66
2022/09/25 04:43:32;;;;;;;68.87;37.20;;;;;;;4.08;80.17;100144.38;1653951;85;25400;-66
2022/09/25 04:46:07;;;;;;;78.20;41.77;;;;;;;4.09;80.31;100142.77;1651991;85;25585;-65
2022/09/25 04:48:34;;;;;;;85.45;47.35;;;;;;;4.12;80.36;100142.78;1666858;85;25612;-65
2022/09/25 04:51:00;;;;;;;79.58;45.03;;;;;;;4.16;80.60;100145.72;1644788;85;25614;-65
2022/09/25 04:53:29;;;;;;;72.30;38.23;;;;;;;4.18;80.64;100144.91;1641335;86;27342;-65
2022/09/25 04:56:01;;;;;;;64.92;35.80;;;;;;;4.20;80.75;100146.23;1654140;85;25581;-65
2022/09/25 04:58:28;;;;;;;104.35;51.70;;;;;;;4.23;80.76;100137.66;1657229;85;25679;-65
2022/09/25 05:00:54;;;;;;;78.17;40.70;;;;;;;4.26;80.87;100137.12;1666371;85;25776;-65
2022/09/25 05:03:21;;;;;;;77.40;39.65;;;;;;;4.29;80.71;100133.91;1643397;85;25676;-65
2022/09/25 05:05:48;;;;;;;68.22;36.68;;;;;;;4.33;80.82;100136.84;1644907;85;28056;-65
2022/09/25 05:08:14;;;;;;;56.58;33.58;;;;;;;4.36;80.89;100138.17;1643248;85;25619;-65
2022/09/25 05:10:43;;;;;;;71.65;40.80;;;;;;;4.39;81.03;100143.81;1643841;85;25428;-65
2022/09/25 05:13:10;;;;;;;66.72;36.25;;;;;;;4.43;81.08;100139.50;1645012;85;25629;-65
2022/09/25 05:15:37;;;;;;;52.75;31.40;;;;;;;4.46;81.12;100130.94;1645301;85;25661;-65
2022/09/25 05:18:09;;;;;;;64.55;33.98;;;;;;;4.51;81.21;100131.44;1672080;84;27585;-65
2022/09/25 05:20:35;;;;;;;55.75;30.20;;;;;;;4.57;81.40;100127.68;1676358;84;25797;-65
2022/09/25 05:23:03;;;;;;;50.35;26.57;;;;;;;4.64;81.55;100129.52;1676838;84;25744;-66
2022/09/25 05:25:30;;;;;;;45.52;26.87;;;;;;;4.72;81.83;100128.72;1676891;84;25714;-66
2022/09/25 05:27:59;;;;;;;44.35;26.40;;;;;;;4.79;81.93;100126.55;1676889;84;25507;-65
2022/09/25 05:30:29;;;;;;;45.93;25.20;;;;;;;4.94;82.20;100136.38;1677136;84;27432;-65
2022/09/25 05:32:59;;;;;;;40.20;24.92;;;;;;;4.94;82.20;100136.38;1676864;84;25584;-66
2022/09/25 05:35:30;;;;;;;43.58;24.70;;;;;;;4.99;82.21;100131.81;1628670;87;25826;-66
2022/09/25 05:37:57;;;;;;;41.70;25.85;;;;;;;5.05;82.22;100140.08;1683582;84;25614;-65
2022/09/25 05:40:23;;;;;;;49.15;28.90;;;;;;;5.12;82.21;100138.44;1681696;84;25796;-65
2022/09/25 05:42:52;;;;;;;44.58;25.17;;;;;;;5.21;82.52;100146.70;1705337;84;27299;-65
2022/09/25 05:45:20;;;;;;;39.03;23.77;;;;;;;5.31;82.71;100156.58;1705162;84;25597;-66
2022/09/25 05:47:47;;;;;;;44.33;24.15;;;;;;;5.46;83.18;100153.02;1705297;84;25583;-64
2022/09/25 05:50:16;;;;;;;50.33;25.68;;;;;;;5.59;83.64;100154.53;1705255;84;25579;-64
2022/09/25 05:52:43;;;;;;;48.08;26.57;;;;;;;5.74;83.71;100156.31;1705507;84;25455;-64
2022/09/25 05:55:10;;;;;;;42.75;26.45;;;;;;;5.90;83.89;100154.85;1705399;84;27908;-65
2022/09/25 05:57:37;;;;;;;41.58;25.15;;;;;;;6.06;84.34;100152.34;1705162;84;25478;-65
2022/09/25 06:00:08;;;;;;;44.38;26.12;;;;;;;6.22;84.26;100154.89;1705363;84;25431;-65
2022/09/25 06:02:35;;;;;;;37.50;23.32;;;;;;;6.39;84.27;100158.48;1647668;87;25642;-65
2022/09/25 06:05:01;;;;;;;42.23;24.18;;;;;;;6.58;85.02;100155.32;1705329;84;25434;-65
2022/09/25 06:07:28;;;;;;;36.75;24.00;;;;;;;6.73;84.64;100161.88;1701779;84;27531;-65
2022/09/25 06:09:54;;;;;;;32.67;20.80;;;;;;;6.89;84.38;100167.06;1621561;88;27297;-65
2022/09/25 06:12:23;;;;;;;39.92;23.73;;;;;;;6.98;83.22;100159.16;1697561;84;29704;-65
2022/09/25 06:14:51;;;;;;;49.38;29.45;;;;;;;7.09;83.47;100167.37;1705437;84;25798;-65
2022/09/25 06:17:18;;;;;;;46.42;28.67;;;;;;;7.22;83.73;100163.97;1700294;83;25686;-65
2022/09/25 06:19:45;;;;;;;32.67;20.43;;;;;;;7.43;84.24;100169.08;1682797;85;27508;-65
2022/09/25 06:22:12;;;;;;;27.98;17.73;;;;;;;7.53;82.27;100167.59;1682757;85;25605;-65
2022/09/25 06:24:38;;;;;;;34.48;19.70;;;;;;;7.64;82.08;100166.88;1682864;85;25623;-65
2022/09/25 06:27:08;;;;;;;30.65;19.48;;;;;;;7.80;82.69;100170.16;1682774;85;26091;-65
2022/09/25 06:29:35;;;;;;;;;;;;;;;7.92;81.96;100162.98;1685279;85;25461;-65
2022/09/25 06:32:02;;;;;;;33.95;22.02;;;;;;;8.07;81.94;100168.11;1682817;84;27435;-65
2022/09/25 06:34:28;;;;;;;34.10;19.90;;;;;;;8.25;82.74;100159.71;1682834;84;25806;-65
2022/09/25 06:36:54;;;;;;;30.92;20.32;;;;;;;8.39;81.29;100157.03;1683094;85;25415;-65
2022/09/25 06:39:21;;;;;;;31.17;20.85;;;;;;;8.60;82.10;100161.55;1683047;85;35274;-65
2022/09/25 06:41:47;;;;;;;34.38;22.45;;;;;;;8.94;84.04;100155.75;1663514;85;25654;-65
2022/09/25 06:44:13;;;;;;;30.35;19.48;;;;;;;9.34;84.40;100162.72;1682970;85;27375;-65
2022/09/25 06:46:43;;;;;;;36.98;20.90;;;;;;;9.66;81.99;100157.45;1682915;85;25381;-65
2022/09/25 06:49:07;;;;;;;33.73;21.25;;;;;;;9.98;82.62;100163.72;1682552;85;25617;-66
2022/09/25 06:51:34;;;;;;;27.93;17.95;;;;;;;10.35;81.99;100163.89;1682994;85;25678;-65
2022/09/25 06:54:01;;;;;;;24.75;15.93;;;;;;;10.67;80.89;100164.66;1683077;85;25951;-65
2022/09/25 06:56:29;;;;;;;26.97;16.65;;;;;;;10.97;80.17;100164.36;1683042;85;27696;-65
2022/09/25 06:58:55;;;;;;;26.55;16.23;;;;;;;11.28;79.12;100162.67;1682884;84;25748;-66
2022/09/25 07:01:22;;;;;;;23.30;15.35;;;;;;;11.63;78.33;100153.20;1671789;85;25583;-66
2022/09/25 07:03:48;;;;;;;22.48;14.93;;;;;;;11.99;77.60;100153.47;1675081;85;25733;-66
2022/09/25 07:06:22;;;;;;;22.70;15.25;;;;;;;12.37;76.53;100151.37;1683082;85;25658;-66
2022/09/25 07:08:50;;;;;;;24.55;15.80;;;;;;;12.75;75.93;100147.28;1683067;85;27286;-65
2022/09/25 07:11:21;;;;;;;22.90;14.73;;;;;;;13.13;74.67;100149.70;1682967;85;25438;-65
2022/09/25 07:13:51;;;;;;;21.73;14.20;;;;;;;13.45;71.87;100146.33;1683151;85;25548;-66
2022/09/25 07:16:18;;;;;;;;;;;;;;;13.73;73.04;100149.06;1685544;85;25635;-67
2022/09/25 07:18:45;;;;;;;22.67;13.75;;;;;;;14.12;71.91;100142.28;1683597;84;25555;-67
2022/09/25 07:21:16;;;;;;;22.27;14.93;;;;;;;14.47;69.94;100144.62;1683033;85;27337;-66
2022/09/25 07:23:47;;;;;;;23.83;15.88;;;;;;;14.74;69.48;100147.27;1683039;84;25416;-66
2022/09/25 07:26:24;;;;;;;22.10;16.10;;;;;;;15.04;68.50;100144.86;1682997;85;25480;-65
2022/09/25 07:28:58;;;;;;;24.37;17.20;;;;;;;15.46;67.93;100145.89;1667338;85;25635;-66
2022/09/25 07:31:28;;;;;;;20.88;14.78;;;;;;;15.87;67.08;100141.25;1648735;85;26403;-66
2022/09/25 07:33:58;;;;;;;20.85;15.08;;;;;;;16.30;65.79;100142.36;1642448;85;27293;-66
2022/09/25 07:36:24;;;;;;;;;;;;;;;16.69;65.21;100141.75;1665548;85;25557;-66
2022/09/25 07:38:52;;;;;;;21.65;14.65;;;;;;;17.22;63.73;100140.05;1652209;85;25626;-66
2022/09/25 07:41:21;;;;;;;22.75;15.85;;;;;;;17.73;63.04;100143.44;1662471;85;25809;-66
2022/09/25 07:43:57;;;;;;;21.27;14.35;;;;;;;18.46;62.11;100137.34;1662955;85;25713;-65
2022/09/25 07:46:26;;;;;;;18.42;14.05;;;;;;;19.05;60.11;100146.08;1646133;85;26921;-66
2022/09/25 07:48:53;;;;;;;19.10;15.28;;;;;;;19.30;58.58;100147.02;1651810;85;25594;-66
2022/09/25 07:51:21;;;;;;;16.02;11.70;;;;;;;19.68;57.55;100147.87;1650962;85;25499;-65
2022/09/25 07:53:47;;;;;;;18.75;12.23;;;;;;;20.06;56.35;100139.89;1670809;85;26377;-67
2022/09/25 07:56:15;;;;;;;15.15;12.28;;;;;;;20.46;55.59;100142.40;1661408;85;25415;-66
2022/09/25 07:58:44;;;;;;;15.20;11.97;;;;;;;20.80;55.41;100134.64;1662645;85;27341;-67
2022/09/25 08:01:12;;;;;;;14.58;10.98;;;;;;;21.20;54.31;100128.20;1655507;85;25778;-67
2022/09/25 08:03:39;;;;;;;15.65;11.65;;;;;;;21.61;53.09;100129.98;1658270;85;25648;-67
2022/09/25 08:06:10;;;;;;;12.47;10.68;;;;;;;21.83;51.91;100126.70;1653247;85;25709;-67
2022/09/25 08:08:37;;;;;;;47.65;29.20;;;;;;;22.08;51.24;100122.59;1660890;85;25687;-66
2022/09/25 08:11:11;;;;;;;17.15;12.23;;;;;;;22.43;50.91;100127.20;1673747;85;27357;-66
2022/09/25 08:13:39;;;;;;;13.03;9.53;;;;;;;22.79;49.46;100129.33;1652684;85;25834;-67
2022/09/25 08:16:12;;;;;;;13.30;9.53;;;;;;;22.97;48.74;100129.30;1641457;85;25567;-66
2022/09/25 08:18:40;;;;;;;10.75;9.53;;;;;;;23.16;47.92;100127.31;1664167;85;25662;-68
2022/09/25 08:21:09;;;;;;;13.05;8.88;;;;;;;23.27;47.25;100132.19;1653205;85;26101;-67
2022/09/25 08:23:35;;;;;;;11.85;8.55;;;;;;;23.39;45.66;100126.83;1647157;85;27934;-67
2022/09/25 08:26:02;;;;;;;11.38;9.03;;;;;;;23.29;44.33;100129.23;1648139;85;25822;-67
2022/09/25 08:28:28;;;;;;;12.10;9.03;;;;;;;23.30;44.68;100127.25;1645833;85;25726;-67
2022/09/25 08:30:58;;;;;;;11.30;8.68;;;;;;;23.42;44.39;100128.78;1650764;85;26361;-67
2022/09/25 08:33:26;;;;;;;11.68;8.60;;;;;;;23.63;43.89;100130.08;1650272;85;25670;-67
2022/09/25 08:36:02;;;;;;;12.90;9.25;;;;;;;23.83;42.76;100133.73;1641919;85;27436;-69
2022/09/25 08:38:32;;;;;;;11.15;9.23;;;;;;;23.49;41.99;100125.99;1644643;85;25667;-70
2022/09/25 08:41:23;;;;;;;9.53;8.53;;;;;;;23.48;42.31;100130.73;1659707;85;25715;-71
2022/09/25 08:44:04;;;;;;;9.60;7.50;;;;;;;23.37;42.17;100126.45;1682323;85;25718;-71
2022/09/25 08:49:28;;;;;;;12.47;8.28;;;;;;;23.40;41.79;100120.13;1682338;85;27556;-71
2022/09/25 08:51:58;;;;;;;9.80;7.95;;;;;;;24.00;41.90;100116.27;1653078;85;25715;-71
2022/09/25 08:54:30;;;;;;;9.00;8.03;;;;;;;24.32;41.26;100113.86;1682194;85;25794;-71
2022/09/25 08:57:30;;;;;;;13.78;8.13;;;;;;;24.54;40.70;100105.39;1662388;85;25672;-72
2022/09/25 09:00:04;;;;;;;8.88;7.17;;;;;;;24.87;40.08;100112.19;1656404;85;25732;-72
2022/09/25 09:02:39;;;;;;;9.23;7.65;;;;;;;24.30;38.22;100112.11;1681564;84;27453;-71
2022/09/25 09:05:16;;;;;;;9.55;7.97;;;;;;;24.02;38.67;100111.14;1658441;85;25675;-71
2022/09/25 09:07:46;;;;;;;9.40;7.78;;;;;;;23.57;38.26;100107.44;1647004;85;25771;-70
2022/09/25 09:10:49;;;;;;;11.57;7.70;;;;;;;23.28;38.41;100097.91;1673921;85;26316;-70
2022/09/25 09:13:27;;;;;;;11.73;7.42;;;;;;;23.21;39.67;100099.31;1634440;85;25754;-68
2022/09/25 09:16:23;;;;;;;8.45;7.28;;;;;;;23.70;40.30;100087.84;1651031;85;27577;-69
2022/09/25 09:18:50;;;;;;;9.35;6.90;;;;;;;24.13;40.18;100084.81;1661028;84;25449;-70
2022/09/25 09:21:42;;;;;;;8.83;7.22;;;;;;;24.24;38.80;100073.05;1689432;84;25696;-70
2022/09/25 09:24:25;;;;;;;9.95;7.47;;;;;;;24.41;38.67;100071.33;1663796;83;25748;-70
2022/09/25 09:27:18;;;;;;;7.65;6.70;;;;;;;24.71;38.72;100069.12;1623425;87;25752;-73
2022/09/25 09:30:18;;;;;;;12.10;6.83;;;;;;;24.96;38.50;100067.44;1659707;85;27330;-70
2022/09/25 09:33:05;;;;;;;8.95;6.53;;;;;;;24.86;37.25;100062.23;1663107;85;25732;-68
2022/09/25 09:35:45;;;;;;;10.05;6.83;;;;;;;24.93;37.50;100063.53;1667303;85;25694;-69
2022/09/25 09:38:51;;;;;;;9.03;6.25;;;;;;;24.93;37.08;100059.38;1678545;85;25936;-74
2022/09/25 09:42:01;;;;;;;7.00;5.83;;;;;;;25.10;37.37;100054.83;1648226;86;25669;-69
2022/09/25 09:44:51;;;;;;;6.58;5.90;;;;;;;25.51;36.38;100055.92;1668104;85;28030;-70
2022/09/25 09:47:52;;;;;;;7.75;6.10;;;;;;;25.46;36.38;100052.23;1676937;85;25795;-72
2022/09/25 09:50:35;;;;;;;8.60;5.72;;;;;;;25.70;35.95;100053.07;1676694;85;25785;-72
2022/09/25 09:53:07;;;;;;;6.30;5.53;;;;;;;25.53;34.96;100046.59;1664201;85;25675;-69
2022/09/25 09:55:44;;;;;;;7.25;5.55;;;;;;;25.52;35.43;100051.93;1678457;85;25645;-69
2022/09/25 09:58:22;;;;;;;6.60;5.70;;;;;;;25.63;35.42;100045.65;1677573;85;26765;-70
2022/09/25 10:00:49;;;;;;;8.30;5.72;;;;;;;26.11;35.81;100041.58;1659112;85;25788;-69
2022/09/25 10:03:23;;;;;;;8.25;5.40;;;;;;;26.40;34.67;100034.94;1667166;85;25635;-68
2022/09/25 10:05:57;;;;;;;6.17;4.90;;;;;;;26.65;34.45;100026.95;1660471;85;25701;-68
2022/09/25 10:08:24;;;;;;;6.65;5.53;;;;;;;26.37;33.41;100025.45;1659945;85;25724;-68
2022/09/25 10:10:53;;;;;;;8.78;4.95;;;;;;;26.33;33.97;100017.83;1670626;85;27406;-69
2022/09/25 10:13:31;;;;;;;8.38;4.62;;;;;;;26.56;34.09;100007.30;1670076;85;25277;-69
2022/09/25 10:16:10;;;;;;;4.95;4.45;;;;;;;26.91;34.12;100013.98;1659765;85;25768;-68
2022/09/25 10:18:39;;;;;;;;;;;;;;;27.14;33.26;100008.34;1672513;83;25640;-68
2022/09/25 10:21:17;;;;;;;6.78;5.30;;;;;;;26.96;32.39;100004.54;1670300;85;25696;-71
2022/09/25 10:23:51;;;;;;;5.70;4.70;;;;;;;26.91;32.50;100000.88;1667587;84;27449;-70
2022/09/25 10:26:37;;;;;;;9.10;7.47;;;;;;;27.18;33.22;99999.92;1660480;85;25799;-71
2022/09/25 10:29:08;;;;;;;7.20;6.10;;;;;;;27.45;32.76;99993.39;1651094;85;25705;-70
2022/09/25 10:31:40;;;;;;;8.15;6.45;;;;;;;27.76;32.60;99986.30;1659093;85;25689;-70
2022/09/25 10:34:18;;;;;;;5.15;4.30;;;;;;;27.95;32.26;99995.00;1676961;85;25399;-69
2022/09/25 10:36:50;;;;;;;5.25;3.87;;;;;;;27.95;31.21;99995.00;1681856;84;27341;-70
2022/09/25 10:39:34;;;;;;;4.87;4.20;;;;;;;27.78;30.68;99993.42;1669378;84;25710;-70
2022/09/25 10:42:07;;;;;;;5.37;4.12;;;;;;;27.63;30.35;99994.37;1632113;87;26019;-70
2022/09/25 10:44:38;;;;;;;5.60;4.60;;;;;;;27.66;30.58;99993.51;1640785;87;25726;-71
2022/09/25 10:50:29;;;;;;;6.42;4.58;;;;;;;27.47;29.32;99986.20;1645071;85;27578;-71
2022/09/25 10:53:00;;;;;;;4.60;4.20;;;;;;;27.24;30.53;99982.92;1640103;86;25733;-71
2022/09/25 10:55:35;;;;;;;4.92;4.35;;;;;;;27.30;30.66;99984.63;1646102;86;25755;-69
2022/09/25 10:58:21;;;;;;;4.35;3.95;;;;;;;27.37;30.33;99980.30;1641344;86;25717;-70
2022/09/25 11:00:55;;;;;;;5.42;4.67;;;;;;;27.11;29.00;99985.59;1614546;87;25778;-70
2022/09/25 11:03:33;;;;;;;7.62;3.95;;;;;;;26.44;29.41;99975.44;1635861;85;27335;-71
2022/09/25 11:06:11;;;;;;;4.35;3.95;;;;;;;26.13;29.45;99969.88;1647054;86;25424;-69
2022/09/25 11:08:40;;;;;;;4.83;4.30;;;;;;;26.12;30.03;99963.56;1630950;86;25560;-70
2022/09/25 11:11:08;;;;;;;4.78;4.25;;;;;;;26.34;30.28;99966.73;1651670;86;25635;-70
2022/09/25 11:13:45;;;;;;;4.50;4.10;;;;;;;26.50;30.54;99966.02;1626737;87;25764;-71
2022/09/25 11:16:11;;;;;;;4.30;3.90;;;;;;;26.73;30.45;99961.04;1667264;84;28097;-70
2022/09/25 11:18:45;;;;;;;4.50;4.10;;;;;;;26.91;29.87;99953.70;1677646;84;25540;-71
2022/09/25 11:21:46;;;;;;;5.22;4.00;;;;;;;27.22;29.98;99953.42;1666646;85;25830;-72
2022/09/25 11:24:18;;;;;;;4.42;3.92;;;;;;;27.61;29.40;99956.53;1650297;85;25719;-72
2022/09/25 11:27:07;;;;;;;6.67;5.00;;;;;;;27.30;28.85;99953.47;1659749;85;25685;-70
2022/09/25 11:29:43;;;;;;;4.85;4.35;;;;;;;27.10;29.26;99952.72;1655123;84;27516;-70
2022/09/25 11:32:46;;;;;;;5.53;3.77;;;;;;;27.31;29.26;99941.16;1658454;84;25650;-71
2022/09/25 11:35:38;;;;;;;6.08;4.12;;;;;;;27.43;28.95;99940.28;1659972;85;25712;-71
2022/09/25 11:41:48;;;;;;;7.92;4.33;;;;;;;27.49;28.73;99936.55;1664963;85;25727;-72
2022/09/25 11:44:31;;;;;;;6.42;4.20;;;;;;;27.73;28.78;99936.38;1628688;87;28064;-71
2022/09/25 11:47:24;;;;;;;6.22;4.50;;;;;;;27.98;28.30;99927.43;1620085;88;25730;-70
2022/09/25 11:49:53;;;;;;;5.58;4.60;;;;;;;27.90;27.42;99932.97;1566868;90;25697;-69
2022/09/25 11:52:42;;;;;;;6.05;5.35;;;;;;;27.28;27.97;99933.69;1561178;90;25586;-69
2022/09/25 11:55:51;;;;;;;6.78;6.10;;;;;;;27.32;28.55;99930.83;1573559;88;25894;-69
2022/09/25 11:58:44;;;;;;;10.10;6.22;;;;;;;27.43;28.53;99934.14;1546969;91;27413;-70
2022/09/25 12:01:30;;;;;;;8.70;6.70;;;;;;;27.65;29.01;99929.43;1546728;91;25719;-70
2022/09/25 12:04:26;;;;;;;6.05;5.35;;;;;;;27.82;29.31;99927.42;1539441;91;25839;-70
2022/09/25 12:07:06;;;;;;;7.25;5.70;;;;;;;28.09;29.19;99927.13;1546653;91;25739;-70
2022/09/25 12:09:50;;;;;;;7.28;5.75;;;;;;;28.09;28.74;99920.19;1543020;91;25733;-71